Kholm, Russia
Current Conditions -  °F | °C
As of 8:00 PM on Monday 24 Nov 2014 (Local Time) from UMII Reporting Station
Haze Haze  
Wind Chill:   Ceiling: 600
Heat Index: 19°   Visibility: 3mi
Dew Point: 18°   Wind: 13mph
Humidity: 93%   Direction: 170°S
Pressure: 30.5"   Gusts: 20mph
Location:  57.15°N, 31.18°E
Report Text: UMII 241700Z 17006G09MPS 4800 BR BKN006 M07/M08 Q1033 R05/CLRD/ /TEMPO 2000 BKN005 RMK QBB180
Loading
Personal Weather Stations






























Interactive Weather Map New forecast layout! Learn more

10-Day Weather Forecast

Advertisements
Track Severe Weather on mobile